createdAt,value
2019-04-30T00:01:48.563Z,18.43
2019-04-30T00:04:15.735Z,18.03
2019-04-30T00:06:41.728Z,18.17
2019-04-30T00:09:09.741Z,17.67
2019-04-30T00:11:36.574Z,18.63
2019-04-30T00:14:05.660Z,18.67
2019-04-30T00:16:36.210Z,19.50
2019-04-30T00:19:00.842Z,19.47
2019-04-30T00:21:26.316Z,18.70
2019-04-30T00:23:55.935Z,19.53
2019-04-30T00:26:21.225Z,19.63
2019-04-30T00:28:48.642Z,20.03
2019-04-30T00:31:17.371Z,21.53
2019-04-30T00:33:44.940Z,21.83
2019-04-30T00:36:11.012Z,20.60
2019-04-30T00:38:38.468Z,20.10
2019-04-30T00:41:09.972Z,19.53
2019-04-30T00:43:37.381Z,21.63
2019-04-30T00:46:00.807Z,20.90
2019-04-30T00:48:31.194Z,20.37
2019-04-30T00:50:55.887Z,21.70
2019-04-30T00:53:23.144Z,21.90
2019-04-30T00:55:50.590Z,21.63
2019-04-30T00:58:24.795Z,21.43
2019-04-30T01:00:59.817Z,21.83
2019-04-30T01:03:25.583Z,22.20
2019-04-30T01:05:52.649Z,22.33
2019-04-30T01:08:21.046Z,20.57
2019-04-30T01:10:47.574Z,20.13
2019-04-30T01:13:15.018Z,21.63
2019-04-30T01:15:44.061Z,20.53
2019-04-30T01:18:09.895Z,21.33
2019-04-30T01:20:38.603Z,20.80
2019-04-30T01:23:08.014Z,20.17
2019-04-30T01:25:32.225Z,20.70
2019-04-30T01:27:59.637Z,20.20
2019-04-30T01:30:28.470Z,21.53
2019-04-30T01:32:56.884Z,19.57
2019-04-30T01:35:23.783Z,20.90
2019-04-30T01:37:49.402Z,20.27
2019-04-30T01:40:18.829Z,19.50
2019-04-30T01:42:48.543Z,19.70
2019-04-30T01:45:11.745Z,19.03
2019-04-30T01:47:39.672Z,20.10
2019-04-30T01:50:06.636Z,19.60
2019-04-30T01:52:45.763Z,19.80
2019-04-30T01:55:13.213Z,19.73
2019-04-30T01:57:46.730Z,18.63
2019-04-30T02:00:14.173Z,18.40
2019-04-30T02:02:41.587Z,19.63
2019-04-30T02:05:09.039Z,19.47
2019-04-30T02:07:36.450Z,19.87
2019-04-30T02:10:03.921Z,20.07
2019-04-30T02:12:31.359Z,20.27
2019-04-30T02:14:59.657Z,20.43
2019-04-30T02:17:26.275Z,21.83
2019-04-30T02:19:56.717Z,20.77
2019-04-30T02:22:21.144Z,22.60
2019-04-30T02:24:48.737Z,21.93
2019-04-30T02:27:16.022Z,22.90
2019-04-30T02:29:43.487Z,20.43
2019-04-30T02:32:10.928Z,21.33
2019-04-30T02:34:42.220Z,22.80
2019-04-30T02:37:05.817Z,22.83
2019-04-30T02:39:33.276Z,23.87
2019-04-30T02:42:00.696Z,24.67
2019-04-30T02:44:29.340Z,25.17
2019-04-30T02:46:55.577Z,27.10
2019-04-30T02:49:23.028Z,26.37
2019-04-30T02:51:50.469Z,24.60
2019-04-30T02:54:20.210Z,25.87
2019-04-30T02:56:45.339Z,24.37
2019-04-30T02:59:12.798Z,24.77
2019-04-30T03:01:40.616Z,26.48
2019-04-30T03:04:09.820Z,23.33
2019-04-30T03:06:35.134Z,23.23
2019-04-30T03:09:02.572Z,25.60
2019-04-30T03:11:30.354Z,24.90
2019-04-30T03:13:59.243Z,25.17
2019-04-30T03:16:30.245Z,23.67
2019-04-30T03:18:59.519Z,23.87
2019-04-30T03:21:40.808Z,22.33
2019-04-30T03:24:10.591Z,24.20
2019-04-30T03:26:35.651Z,23.20
2019-04-30T03:29:03.069Z,21.13
2019-04-30T03:31:32.406Z,24.40
2019-04-30T03:34:01.613Z,27.87
2019-04-30T03:36:25.398Z,29.03
2019-04-30T03:38:52.806Z,30.67
2019-04-30T03:41:20.221Z,33.43
2019-04-30T03:43:50.333Z,32.60
2019-04-30T03:46:15.125Z,32.13
2019-04-30T03:48:42.576Z,34.43
2019-04-30T03:51:10.572Z,33.17
2019-04-30T03:53:39.700Z,36.03
2019-04-30T03:56:04.885Z,36.10
2019-04-30T03:58:32.327Z,36.93
2019-04-30T04:01:02.443Z,37.37
2019-04-30T04:03:29.913Z,33.30
2019-04-30T04:06:15.266Z,36.10
2019-04-30T04:08:43.464Z,34.40
2019-04-30T04:11:12.792Z,32.30
2019-04-30T04:13:40.277Z,32.87
2019-04-30T04:16:09.657Z,32.47
2019-04-30T04:18:35.134Z,30.33
2019-04-30T04:21:11.539Z,29.63
2019-04-30T04:23:32.757Z,28.07
2019-04-30T04:25:59.549Z,26.17
2019-04-30T04:28:24.890Z,24.90
2019-04-30T04:30:52.330Z,24.60
2019-04-30T04:33:20.060Z,24.97
2019-04-30T04:35:49.921Z,25.93
2019-04-30T04:38:14.685Z,24.60
2019-04-30T04:40:42.102Z,26.10
2019-04-30T04:43:10.361Z,27.47
2019-04-30T04:45:37.001Z,25.67
2019-04-30T04:48:04.462Z,26.27
2019-04-30T04:50:31.912Z,26.60
2019-04-30T04:52:59.583Z,26.07
2019-04-30T04:55:26.927Z,24.27
2019-04-30T04:57:54.393Z,26.77
2019-04-30T05:00:21.798Z,25.67
2019-04-30T05:02:52.194Z,24.97
2019-04-30T05:05:19.664Z,24.73
2019-04-30T05:07:48.600Z,23.07
2019-04-30T05:10:14.547Z,23.50
2019-04-30T05:12:41.985Z,22.37
2019-04-30T05:15:09.668Z,21.93
2019-04-30T05:17:36.888Z,19.67
2019-04-30T05:20:06.864Z,19.97
2019-04-30T05:22:34.311Z,21.13
2019-04-30T05:25:01.723Z,19.73
2019-04-30T05:27:30.306Z,20.30
2019-04-30T05:29:56.599Z,20.37
2019-04-30T05:32:24.050Z,20.10
2019-04-30T05:34:51.467Z,20.50
2019-04-30T05:37:18.932Z,19.83
2019-04-30T05:39:46.354Z,20.17
2019-04-30T05:42:13.813Z,19.67
2019-04-30T05:44:41.236Z,19.30
2019-04-30T05:47:09.329Z,19.70
2019-04-30T05:49:36.087Z,19.00
2019-04-30T05:52:03.535Z,20.40
2019-04-30T05:54:30.950Z,18.10
2019-04-30T05:56:59.409Z,17.70
2019-04-30T05:59:25.879Z,17.63
2019-04-30T06:01:53.295Z,17.13
2019-04-30T06:04:20.738Z,17.13
2019-04-30T06:06:49.055Z,17.30
2019-04-30T06:09:34.109Z,16.57
2019-04-30T06:12:20.305Z,16.20
2019-04-30T06:15:04.703Z,16.40
2019-04-30T06:17:32.137Z,15.23
2019-04-30T06:19:59.592Z,16.33
2019-04-30T06:22:28.786Z,15.73
2019-04-30T06:24:54.481Z,15.03
2019-04-30T06:27:21.905Z,14.37
2019-04-30T06:29:49.371Z,16.00
2019-04-30T06:32:18.485Z,15.63
2019-04-30T06:34:44.225Z,15.00
2019-04-30T06:37:11.635Z,14.77
2019-04-30T06:39:39.074Z,14.30
2019-04-30T06:42:10.707Z,14.97
2019-04-30T06:44:38.933Z,16.33
2019-04-30T06:47:01.370Z,15.03
2019-04-30T06:49:28.925Z,15.70
2019-04-30T06:51:56.275Z,15.87
2019-04-30T06:54:23.679Z,16.40
2019-04-30T06:56:51.133Z,16.13
2019-04-30T06:59:20.282Z,15.97
2019-04-30T07:01:45.964Z,17.10
2019-04-30T07:04:13.441Z,17.83
2019-04-30T07:06:44.132Z,19.13
2019-04-30T07:09:13.991Z,19.30
2019-04-30T07:11:41.394Z,18.97
2019-04-30T07:14:09.688Z,18.53
2019-04-30T07:16:36.250Z,18.97
2019-04-30T07:19:03.689Z,19.97
2019-04-30T07:21:31.694Z,20.10
2019-04-30T07:23:59.721Z,19.20
2019-04-30T07:26:25.971Z,19.17
2019-04-30T07:28:55.239Z,18.03
2019-04-30T07:31:20.874Z,18.63
2019-04-30T07:33:51.475Z,18.87
2019-04-30T07:36:15.713Z,19.23
2019-04-30T07:38:51.568Z,17.90
2019-04-30T07:41:10.586Z,19.37
2019-04-30T07:43:39.314Z,18.03
2019-04-30T07:46:05.488Z,16.87
2019-04-30T07:48:32.930Z,17.63
2019-04-30T07:51:00.376Z,17.90
2019-04-30T07:53:27.790Z,17.50
2019-04-30T07:55:55.258Z,16.90
2019-04-30T07:58:22.660Z,17.47
2019-04-30T08:00:55.427Z,17.07
2019-04-30T08:03:32.689Z,17.43
2019-04-30T08:06:00.131Z,17.10
2019-04-30T08:08:27.283Z,16.87
2019-04-30T08:10:54.671Z,17.70
2019-04-30T08:13:22.774Z,17.47
2019-04-30T08:15:49.608Z,17.07
2019-04-30T08:18:18.491Z,17.50
2019-04-30T08:20:44.426Z,17.67
2019-04-30T08:23:20.334Z,18.33
2019-04-30T08:25:39.294Z,18.17
2019-04-30T08:28:06.698Z,17.93
2019-04-30T08:30:34.149Z,17.80
2019-04-30T08:33:01.556Z,17.37
2019-04-30T08:35:29.646Z,18.83
2019-04-30T08:37:56.400Z,18.83
2019-04-30T08:40:23.844Z,19.70
2019-04-30T08:42:51.259Z,18.43
2019-04-30T08:45:19.750Z,19.77
2019-04-30T08:47:46.158Z,18.10
2019-04-30T08:50:13.656Z,18.67
2019-04-30T08:52:41.085Z,18.87
2019-04-30T08:55:14.107Z,19.77
2019-04-30T08:57:35.951Z,19.83
2019-04-30T09:00:03.427Z,18.87
2019-04-30T09:02:30.834Z,18.63
2019-04-30T09:05:00.260Z,18.87
2019-04-30T09:07:25.734Z,18.43
2019-04-30T09:09:53.148Z,19.30
2019-04-30T09:12:20.597Z,19.73
2019-04-30T09:14:49.016Z,18.77
2019-04-30T09:17:15.489Z,18.63
2019-04-30T09:19:42.903Z,19.10
2019-04-30T09:22:14.992Z,19.20
2019-04-30T09:24:39.220Z,17.77
2019-04-30T09:27:05.192Z,19.73
2019-04-30T09:29:32.640Z,19.30
2019-04-30T09:32:00.045Z,19.27
2019-04-30T09:34:29.074Z,20.63
2019-04-30T09:36:54.944Z,19.37
2019-04-30T09:39:23.131Z,19.70
2019-04-30T09:41:49.788Z,20.03
2019-04-30T09:44:17.201Z,18.73
2019-04-30T09:46:44.658Z,20.30
2019-04-30T09:49:12.074Z,18.97
2019-04-30T09:51:40.164Z,20.60
2019-04-30T09:54:11.429Z,26.80
2019-04-30T09:56:34.403Z,23.07
2019-04-30T09:59:01.874Z,23.37
2019-04-30T10:01:32.325Z,23.50
2019-04-30T10:03:57.003Z,25.00
2019-04-30T10:06:36.342Z,22.43
2019-04-30T10:08:51.661Z,20.73
2019-04-30T10:11:22.000Z,21.77
2019-04-30T10:13:49.428Z,21.63
2019-04-30T10:16:19.866Z,21.47
2019-04-30T10:18:47.283Z,21.80
2019-04-30T10:21:14.718Z,23.93
2019-04-30T10:23:42.243Z,26.00
2019-04-30T10:26:09.686Z,27.47
2019-04-30T10:28:37.120Z,26.40
2019-04-30T10:31:04.544Z,27.10
2019-04-30T10:33:31.994Z,25.50
2019-04-30T10:35:59.538Z,21.20
2019-04-30T10:38:26.868Z,22.27
2019-04-30T10:40:54.382Z,20.80
2019-04-30T10:43:21.766Z,21.50
2019-04-30T10:45:49.176Z,21.57
2019-04-30T10:48:16.630Z,21.93
2019-04-30T10:50:44.046Z,21.23
2019-04-30T10:53:12.523Z,22.53
2019-04-30T10:55:38.926Z,22.10
2019-04-30T10:58:06.346Z,21.70
2019-04-30T11:00:38.803Z,22.47
2019-04-30T11:03:16.320Z,23.37
2019-04-30T11:05:31.716Z,21.37
2019-04-30T11:07:59.509Z,24.10
2019-04-30T11:10:28.591Z,25.37
2019-04-30T11:12:54.053Z,23.67
2019-04-30T11:15:21.462Z,25.23
2019-04-30T11:17:49.708Z,25.57
2019-04-30T11:20:16.604Z,24.57
2019-04-30T11:22:43.930Z,27.27
2019-04-30T11:25:11.420Z,27.33
2019-04-30T11:27:40.764Z,28.77
2019-04-30T11:30:20.489Z,26.93
2019-04-30T11:32:36.440Z,27.77
2019-04-30T11:35:03.745Z,28.57
2019-04-30T11:37:31.153Z,27.33
2019-04-30T11:39:58.599Z,28.70
2019-04-30T11:42:26.025Z,27.80
2019-04-30T11:44:53.453Z,27.37
2019-04-30T11:47:23.384Z,28.17
2019-04-30T11:49:50.797Z,26.03
2019-04-30T11:52:18.222Z,26.90
2019-04-30T11:54:51.642Z,27.90
2019-04-30T11:57:13.087Z,27.90
2019-04-30T11:59:40.544Z,29.77
2019-04-30T12:02:07.944Z,29.50
2019-04-30T12:04:35.382Z,28.90
2019-04-30T12:07:17.791Z,28.23
2019-04-30T12:09:50.946Z,27.10
2019-04-30T12:12:18.922Z,28.30
2019-04-30T12:14:45.843Z,28.10
2019-04-30T12:17:13.265Z,27.53
2019-04-30T12:19:40.679Z,28.43
2019-04-30T12:22:08.163Z,26.97
2019-04-30T12:24:35.624Z,26.07
2019-04-30T12:27:03.084Z,28.00
2019-04-30T12:29:30.504Z,29.20
2019-04-30T12:31:57.962Z,28.23
2019-04-30T12:34:25.380Z,27.77
2019-04-30T12:36:52.801Z,27.40
2019-04-30T12:39:20.566Z,27.57
2019-04-30T12:41:48.895Z,28.73
2019-04-30T12:44:15.446Z,28.13
2019-04-30T12:46:42.866Z,29.33
2019-04-30T12:49:10.397Z,26.70
2019-04-30T12:51:45.497Z,26.97
2019-04-30T12:54:23.271Z,24.73
2019-04-30T12:57:10.816Z,27.40
2019-04-30T12:59:36.188Z,27.87
2019-04-30T13:02:03.657Z,26.50
2019-04-30T13:04:31.097Z,27.73
2019-04-30T13:07:01.304Z,27.47
2019-04-30T13:09:26.348Z,26.80
2019-04-30T13:11:53.963Z,27.43
2019-04-30T13:14:21.325Z,27.67
2019-04-30T13:16:49.050Z,27.13
2019-04-30T13:19:16.562Z,26.10
2019-04-30T13:21:44.001Z,26.90
2019-04-30T13:24:11.554Z,27.33
2019-04-30T13:26:39.692Z,26.40
2019-04-30T13:29:15.287Z,28.37
2019-04-30T13:31:42.744Z,26.73
2019-04-30T13:34:29.912Z,27.23
2019-04-30T13:36:55.823Z,24.13
2019-04-30T13:39:47.514Z,24.40
2019-04-30T13:42:17.617Z,25.70
2019-04-30T13:44:39.424Z,25.60
2019-04-30T13:47:06.580Z,25.37
2019-04-30T13:49:34.006Z,25.33
2019-04-30T13:52:01.451Z,25.77
2019-04-30T13:54:28.881Z,25.83
2019-04-30T13:56:56.333Z,25.30
2019-04-30T13:59:23.785Z,24.23
2019-04-30T14:01:51.189Z,24.93
2019-04-30T14:04:21.543Z,25.27
2019-04-30T14:07:08.301Z,23.63
2019-04-30T14:09:36.040Z,22.83
2019-04-30T14:12:03.444Z,25.83
2019-04-30T14:14:30.858Z,25.33
2019-04-30T14:16:58.684Z,26.53
2019-04-30T14:19:25.770Z,24.83
2019-04-30T14:21:53.229Z,23.77
2019-04-30T14:24:20.657Z,23.37
2019-04-30T14:26:49.098Z,26.97
2019-04-30T14:29:15.511Z,26.40
2019-04-30T14:31:42.915Z,25.17
2019-04-30T14:34:10.363Z,24.67
2019-04-30T14:36:39.182Z,25.87
2019-04-30T14:39:14.655Z,27.63
2019-04-30T14:41:33.241Z,26.83
2019-04-30T14:44:03.496Z,26.90
2019-04-30T14:46:46.036Z,25.87
2019-04-30T14:49:16.909Z,27.23
2019-04-30T14:51:43.436Z,25.53
2019-04-30T14:54:10.929Z,24.50
2019-04-30T14:56:41.030Z,25.47
2019-04-30T14:59:28.822Z,26.63
2019-04-30T15:01:54.403Z,25.67
2019-04-30T15:04:21.823Z,24.80
2019-04-30T15:06:49.293Z,25.63
2019-04-30T15:09:16.708Z,26.87
2019-04-30T15:11:44.174Z,26.60
2019-04-30T15:14:11.584Z,27.83
2019-04-30T15:16:39.034Z,27.23
2019-04-30T15:19:06.457Z,26.77
2019-04-30T15:21:33.916Z,27.13
2019-04-30T15:24:19.615Z,28.17
2019-04-30T15:26:47.065Z,27.13
2019-04-30T15:29:16.096Z,28.50
2019-04-30T15:31:42.713Z,28.73
2019-04-30T15:34:11.118Z,28.07
2019-04-30T15:36:36.835Z,27.93
2019-04-30T15:39:16.919Z,29.47
2019-04-30T15:41:44.368Z,29.30
2019-04-30T15:44:11.822Z,28.10
2019-04-30T15:46:39.255Z,29.17
2019-04-30T15:49:06.699Z,28.17
2019-04-30T15:51:34.123Z,29.73
2019-04-30T15:54:01.588Z,27.67
2019-04-30T15:56:37.095Z,27.30
2019-04-30T15:59:14.778Z,27.43
2019-04-30T16:01:42.193Z,27.53
2019-04-30T16:04:10.337Z,28.93
2019-04-30T16:06:38.538Z,27.97
2019-04-30T16:09:07.087Z,28.57
2019-04-30T16:11:34.560Z,28.97
2019-04-30T16:14:20.314Z,28.40
2019-04-30T16:16:56.464Z,27.50
2019-04-30T16:19:23.921Z,28.77
2019-04-30T16:21:51.371Z,28.10
2019-04-30T16:24:18.861Z,27.63
2019-04-30T16:26:49.434Z,28.20
2019-04-30T16:29:13.711Z,28.83
2019-04-30T16:31:41.131Z,28.17
2019-04-30T16:34:08.594Z,29.47
2019-04-30T16:36:36.037Z,28.80
2019-04-30T16:39:03.472Z,29.67
2019-04-30T16:41:31.991Z,27.97
2019-04-30T16:43:59.416Z,30.40
2019-04-30T16:46:25.778Z,30.30
2019-04-30T16:48:53.266Z,28.60
2019-04-30T16:51:20.738Z,29.37
2019-04-30T16:53:48.713Z,29.07
2019-04-30T16:56:15.623Z,30.03
2019-04-30T16:59:01.282Z,32.60
2019-04-30T17:01:31.217Z,30.43
2019-04-30T17:04:04.469Z,30.03
2019-04-30T17:06:50.263Z,31.43
2019-04-30T17:09:17.713Z,30.67
2019-04-30T17:12:03.359Z,31.30
2019-04-30T17:14:30.858Z,31.67
2019-04-30T17:16:59.741Z,30.77
2019-04-30T17:19:25.701Z,31.37
2019-04-30T17:21:53.189Z,30.80
2019-04-30T17:24:20.621Z,32.93
2019-04-30T17:26:49.695Z,30.30
2019-04-30T17:29:15.487Z,30.77
2019-04-30T17:31:42.913Z,31.97
2019-04-30T17:34:10.415Z,30.60
2019-04-30T17:36:39.636Z,31.20
2019-04-30T17:39:05.303Z,28.90
2019-04-30T17:41:32.725Z,29.50
2019-04-30T17:44:00.181Z,28.63
2019-04-30T17:46:28.540Z,28.80
2019-04-30T17:48:55.045Z,27.77
2019-04-30T17:51:22.900Z,27.67
2019-04-30T17:54:09.730Z,28.87
2019-04-30T17:56:35.988Z,27.10
2019-04-30T17:59:03.454Z,27.23
2019-04-30T18:01:30.871Z,28.33
2019-04-30T18:03:58.823Z,28.43
2019-04-30T18:06:25.818Z,27.43
2019-04-30T18:08:53.242Z,28.47
2019-04-30T18:11:20.696Z,27.97
2019-04-30T18:13:48.777Z,28.00
2019-04-30T18:16:15.556Z,28.00
2019-04-30T18:18:45.689Z,26.87
2019-04-30T18:21:22.172Z,27.87
2019-04-30T18:24:08.663Z,27.73
2019-04-30T18:26:37.647Z,28.33
2019-04-30T18:29:02.734Z,27.90
2019-04-30T18:31:30.158Z,27.40
2019-04-30T18:33:59.321Z,28.47
2019-04-30T18:36:25.061Z,28.87
2019-04-30T18:38:52.524Z,27.53
2019-04-30T18:41:19.980Z,30.40
2019-04-30T18:43:52.177Z,29.17
2019-04-30T18:46:14.892Z,28.63
2019-04-30T18:48:42.302Z,29.80
2019-04-30T18:51:29.829Z,30.40
2019-04-30T18:53:37.178Z,29.27
2019-04-30T18:56:04.658Z,28.27
2019-04-30T18:58:39.976Z,29.77
2019-04-30T19:00:59.473Z,29.93
2019-04-30T19:03:26.959Z,28.03
2019-04-30T19:05:54.365Z,28.83
2019-04-30T19:08:24.559Z,30.43
2019-04-30T19:11:01.170Z,29.80
2019-04-30T19:13:29.866Z,30.37
2019-04-30T19:16:25.206Z,29.50
2019-04-30T19:18:38.268Z,30.60
2019-04-30T19:21:05.733Z,29.97
2019-04-30T19:23:33.140Z,31.90
2019-04-30T19:26:00.590Z,29.20
2019-04-30T19:28:28.675Z,29.13
2019-04-30T19:30:58.309Z,29.37
2019-04-30T19:33:22.918Z,29.60
2019-04-30T19:35:50.676Z,29.10
2019-04-30T19:38:17.811Z,28.80
2019-04-30T19:40:45.222Z,30.23
2019-04-30T19:43:12.657Z,29.30
2019-04-30T19:45:40.081Z,29.30
2019-04-30T19:48:09.007Z,30.33
2019-04-30T19:50:34.947Z,30.30
2019-04-30T19:53:02.389Z,30.40
2019-04-30T19:55:29.796Z,30.13
2019-04-30T19:57:59.692Z,30.87
2019-04-30T20:00:24.701Z,30.40
2019-04-30T20:02:52.120Z,31.43
2019-04-30T20:05:19.570Z,31.63
2019-04-30T20:07:47.045Z,30.73
2019-04-30T20:10:14.462Z,30.13
2019-04-30T20:12:41.902Z,30.80
2019-04-30T20:15:17.332Z,30.53
2019-04-30T20:17:38.499Z,33.50
2019-04-30T20:20:08.806Z,31.63
2019-04-30T20:22:34.127Z,32.43
2019-04-30T20:25:01.591Z,31.00
2019-04-30T20:27:29.743Z,32.67
2019-04-30T20:29:56.479Z,31.47
2019-04-30T20:32:33.952Z,31.37
2019-04-30T20:34:51.381Z,32.53
2019-04-30T20:37:19.656Z,31.87
2019-04-30T20:39:58.635Z,32.07
2019-04-30T20:42:25.640Z,33.03
2019-04-30T20:44:53.053Z,32.87
2019-04-30T20:47:21.061Z,31.53
2019-04-30T20:49:48.995Z,33.70
2019-04-30T20:52:15.371Z,33.00
2019-04-30T20:54:42.787Z,33.00
2019-04-30T20:57:10.249Z,34.70
2019-04-30T20:59:38.777Z,31.80
2019-04-30T21:02:05.089Z,34.03
2019-04-30T21:04:32.580Z,31.63
2019-04-30T21:07:00.023Z,32.17
2019-04-30T21:09:27.475Z,32.63
2019-04-30T21:11:54.929Z,33.57
2019-04-30T21:14:22.343Z,32.07
2019-04-30T21:16:49.812Z,32.50
2019-04-30T21:19:17.264Z,30.40
2019-04-30T21:21:44.680Z,31.20
2019-04-30T21:24:12.127Z,31.30
2019-04-30T21:26:39.587Z,32.00
2019-04-30T21:29:13.637Z,30.80
2019-04-30T21:31:34.520Z,32.83
2019-04-30T21:34:04.463Z,32.63
2019-04-30T21:36:31.889Z,32.07
2019-04-30T21:38:59.365Z,31.23
2019-04-30T21:41:26.799Z,30.80
2019-04-30T21:43:54.245Z,31.50
2019-04-30T21:46:21.691Z,30.77
2019-04-30T21:48:49.135Z,32.47
2019-04-30T21:51:16.556Z,31.97
2019-04-30T21:53:44.010Z,32.83
2019-04-30T21:56:11.424Z,34.13
2019-04-30T21:58:39.327Z,33.63
2019-04-30T22:01:08.858Z,33.23
2019-04-30T22:03:36.272Z,33.93
2019-04-30T22:06:03.720Z,33.07
2019-04-30T22:08:31.147Z,33.20
2019-04-30T22:11:00.210Z,31.83
2019-04-30T22:13:26.035Z,30.77
2019-04-30T22:15:53.456Z,30.90
2019-04-30T22:18:20.917Z,32.67
2019-04-30T22:20:49.830Z,32.20
2019-04-30T22:23:15.802Z,33.30
2019-04-30T22:25:43.258Z,32.63
2019-04-30T22:28:10.684Z,32.87
2019-04-30T22:30:38.141Z,32.77
2019-04-30T22:33:05.593Z,34.50
2019-04-30T22:35:33.042Z,33.90
2019-04-30T22:38:03.289Z,33.73
2019-04-30T22:40:31.605Z,34.27
2019-04-30T22:42:59.367Z,32.77
2019-04-30T22:45:25.639Z,32.70
2019-04-30T22:47:53.050Z,34.00
2019-04-30T22:50:20.533Z,33.60
2019-04-30T22:52:47.971Z,33.77
2019-04-30T22:55:15.418Z,34.10
2019-04-30T22:57:42.883Z,33.67
2019-04-30T23:00:10.306Z,35.37
2019-04-30T23:02:37.768Z,36.33
2019-04-30T23:05:05.196Z,35.33
2019-04-30T23:07:32.670Z,34.70
2019-04-30T23:10:00.072Z,33.27
2019-04-30T23:12:27.530Z,34.97
2019-04-30T23:14:57.813Z,35.47
2019-04-30T23:17:25.268Z,35.93
2019-04-30T23:19:52.686Z,34.73
2019-04-30T23:22:20.141Z,33.00
2019-04-30T23:24:47.567Z,35.07
2019-04-30T23:27:14.981Z,34.60
2019-04-30T23:29:42.469Z,36.07
2019-04-30T23:32:09.920Z,33.40
2019-04-30T23:34:37.358Z,34.23
2019-04-30T23:37:04.803Z,35.77
2019-04-30T23:39:32.253Z,33.10
2019-04-30T23:41:59.708Z,33.93
2019-04-30T23:44:27.394Z,35.27
2019-04-30T23:46:54.842Z,36.57
2019-04-30T23:49:22.293Z,34.10
2019-04-30T23:51:50.666Z,38.40
2019-04-30T23:54:17.198Z,35.50
2019-04-30T23:56:44.622Z,34.33
2019-04-30T23:59:12.079Z,32.97
